createdAt,value
2023-04-15T00:01:11.823Z,4.90
2023-04-15T00:04:16.126Z,4.86
2023-04-15T00:07:19.708Z,4.78
2023-04-15T00:10:23.366Z,4.75
2023-04-15T00:13:28.465Z,4.77
2023-04-15T00:16:32.099Z,4.81
2023-04-15T00:19:35.700Z,4.84
2023-04-15T00:22:39.331Z,4.89
2023-04-15T00:25:42.887Z,4.92
2023-04-15T00:28:47.833Z,4.90
2023-04-15T00:31:51.369Z,4.96
2023-04-15T00:34:54.880Z,4.92
2023-04-15T00:37:58.490Z,5.00
2023-04-15T00:41:03.105Z,5.00
2023-04-15T00:44:08.290Z,5.03
2023-04-15T00:47:13.324Z,4.96
2023-04-15T00:50:16.839Z,4.95
2023-04-15T00:53:20.685Z,5.01
2023-04-15T00:56:25.511Z,5.04
2023-04-15T00:59:31.780Z,5.03
2023-04-15T01:02:36.565Z,5.00
2023-04-15T01:05:41.718Z,5.07
2023-04-15T01:08:45.795Z,5.05
2023-04-15T01:11:49.418Z,5.05
2023-04-15T01:14:55.424Z,5.06
2023-04-15T01:18:01.215Z,5.06
2023-04-15T01:21:06.208Z,5.02
2023-04-15T01:24:11.964Z,5.01
2023-04-15T01:27:16.793Z,5.00
2023-04-15T01:30:21.876Z,5.07
2023-04-15T01:33:25.692Z,5.06
2023-04-15T01:36:29.937Z,5.08
2023-04-15T01:39:33.728Z,5.11
2023-04-15T01:42:38.999Z,5.13
2023-04-15T01:45:42.972Z,5.14
2023-04-15T01:48:46.630Z,5.22
2023-04-15T01:51:50.236Z,5.18
2023-04-15T01:54:53.754Z,5.23
2023-04-15T01:57:59.045Z,5.24
2023-04-15T02:01:03.091Z,5.19
2023-04-15T02:04:07.278Z,5.16
2023-04-15T02:07:10.872Z,5.24
2023-04-15T02:10:16.431Z,5.22
2023-04-15T02:13:21.387Z,5.24
2023-04-15T02:16:24.906Z,5.22
2023-04-15T02:19:28.448Z,5.26
2023-04-15T02:22:32.014Z,5.22
2023-04-15T02:25:35.579Z,5.26
2023-04-15T02:28:40.515Z,5.27
2023-04-15T02:31:45.043Z,5.30
2023-04-15T02:34:48.714Z,5.26
2023-04-15T02:37:52.574Z,5.26
2023-04-15T02:40:56.644Z,5.28
2023-04-15T02:44:01.461Z,5.28
2023-04-15T02:47:07.218Z,5.25
2023-04-15T02:50:13.260Z,5.31
2023-04-15T02:53:17.577Z,5.29
2023-04-15T02:56:23.198Z,5.31
2023-04-15T02:59:28.317Z,5.29
2023-04-15T03:02:36.099Z,5.30
2023-04-15T03:05:40.568Z,5.32
2023-04-15T03:08:43.983Z,5.35
2023-04-15T03:11:47.772Z,5.35
2023-04-15T03:14:52.562Z,5.36
2023-04-15T03:17:56.070Z,5.42
2023-04-15T03:20:59.550Z,5.41
2023-04-15T03:24:03.107Z,5.41
2023-04-15T03:27:08.029Z,5.43
2023-04-15T03:30:14.386Z,5.42
2023-04-15T03:33:18.148Z,5.44
2023-04-15T03:36:21.738Z,5.44
2023-04-15T03:39:25.251Z,5.43
2023-04-15T03:42:28.784Z,5.44
2023-04-15T03:45:34.092Z,5.47
2023-04-15T03:48:37.835Z,5.46
2023-04-15T03:51:41.385Z,5.46
2023-04-15T03:54:44.925Z,5.48
2023-04-15T03:57:48.391Z,5.52
2023-04-15T04:00:53.350Z,5.49
2023-04-15T04:03:57.148Z,5.52
2023-04-15T04:07:00.866Z,5.53
2023-04-15T04:10:04.889Z,5.54
2023-04-15T04:13:08.426Z,5.55
2023-04-15T04:16:13.485Z,5.59
2023-04-15T04:19:19.649Z,5.56
2023-04-15T04:22:24.831Z,5.58
2023-04-15T04:25:28.349Z,5.54
2023-04-15T04:28:31.890Z,5.56
2023-04-15T04:31:37.125Z,5.61
2023-04-15T04:34:40.701Z,5.55
2023-04-15T04:37:44.242Z,5.56
2023-04-15T04:40:47.851Z,5.60
2023-04-15T04:43:51.441Z,5.59
2023-04-15T04:46:56.412Z,5.59
2023-04-15T04:49:59.918Z,5.57
2023-04-15T04:53:04.057Z,5.56
2023-04-15T04:56:08.031Z,5.60
2023-04-15T04:59:11.615Z,5.59
2023-04-15T05:02:16.654Z,5.60
2023-04-15T05:05:20.380Z,5.64
2023-04-15T05:08:23.925Z,5.58
2023-04-15T05:11:28.355Z,5.63
2023-04-15T05:14:32.316Z,5.69
2023-04-15T05:17:37.350Z,5.69
2023-04-15T05:20:41.070Z,5.64
2023-04-15T05:23:44.656Z,5.66
2023-04-15T05:26:48.456Z,5.65
2023-04-15T05:29:51.956Z,5.72
2023-04-15T05:32:57.278Z,5.67
2023-04-15T05:36:00.808Z,5.70
2023-04-15T05:39:04.581Z,5.75
2023-04-15T05:42:08.146Z,5.76
2023-04-15T05:45:12.860Z,5.74
2023-04-15T05:48:17.776Z,5.72
2023-04-15T05:51:21.449Z,5.82
2023-04-15T05:54:25.054Z,5.76
2023-04-15T05:57:28.734Z,5.77
2023-04-15T06:00:32.297Z,5.82
2023-04-15T06:03:37.452Z,5.83
2023-04-15T06:06:41.187Z,5.88
2023-04-15T06:09:45.058Z,5.94
2023-04-15T06:12:48.625Z,5.97
2023-04-15T06:15:52.278Z,5.93
2023-04-15T06:18:57.180Z,5.98
2023-04-15T06:22:00.873Z,6.00
2023-04-15T06:25:04.723Z,6.08
2023-04-15T06:28:08.848Z,6.03
2023-04-15T06:31:12.709Z,6.05
2023-04-15T06:34:18.378Z,6.12
2023-04-15T06:37:22.234Z,6.08
2023-04-15T06:40:26.066Z,6.09
2023-04-15T06:43:29.774Z,6.12
2023-04-15T06:46:33.364Z,6.18
2023-04-15T06:49:38.708Z,6.19
2023-04-15T06:52:42.504Z,6.20
2023-04-15T06:55:46.039Z,6.22
2023-04-15T06:58:49.478Z,6.23
2023-04-15T07:01:53.008Z,6.27
2023-04-15T07:04:57.937Z,6.27
2023-04-15T07:08:02.040Z,6.27
2023-04-15T07:11:05.587Z,6.37
2023-04-15T07:14:09.139Z,6.32
2023-04-15T07:17:13.440Z,6.35
2023-04-15T07:20:18.796Z,6.37
2023-04-15T07:23:22.539Z,6.37
2023-04-15T07:26:26.106Z,6.40
2023-04-15T07:29:29.680Z,6.42
2023-04-15T07:32:33.200Z,6.44
2023-04-15T07:35:38.182Z,6.46
2023-04-15T07:38:41.712Z,6.46
2023-04-15T07:41:45.318Z,6.50
2023-04-15T07:44:49.051Z,6.51
2023-04-15T07:47:52.691Z,6.55
2023-04-15T07:50:57.634Z,6.51
2023-04-15T07:54:01.209Z,6.60
2023-04-15T07:57:04.900Z,6.61
2023-04-15T08:00:10.136Z,6.66
2023-04-15T08:03:13.725Z,6.62
2023-04-15T08:06:18.804Z,6.65
2023-04-15T08:09:22.396Z,6.63
2023-04-15T08:12:26.084Z,6.72
2023-04-15T08:15:46.317Z,6.72
2023-04-15T08:18:52.177Z,6.73
2023-04-15T08:21:57.702Z,6.74
2023-04-15T08:25:01.636Z,6.84
2023-04-15T08:28:07.548Z,6.80
2023-04-15T08:31:11.309Z,6.85
2023-04-15T08:34:15.068Z,6.88
2023-04-15T08:37:21.320Z,6.87
2023-04-15T08:40:29.818Z,6.88
2023-04-15T08:43:39.150Z,6.91
2023-04-15T08:46:44.735Z,6.94
2023-04-15T08:49:53.896Z,6.92
2023-04-15T08:53:00.994Z,6.95
2023-04-15T08:56:10.996Z,6.94
2023-04-15T08:59:14.870Z,6.94
2023-04-15T09:02:18.805Z,6.97
2023-04-15T09:05:23.151Z,7.02
2023-04-15T09:08:28.202Z,6.99
2023-04-15T09:11:32.445Z,7.04
2023-04-15T09:14:37.307Z,7.07
2023-04-15T09:17:45.386Z,7.15
2023-04-15T09:20:48.892Z,7.18
2023-04-15T09:24:03.324Z,7.19
2023-04-15T09:27:07.568Z,7.20
2023-04-15T09:30:13.213Z,7.22
2023-04-15T09:33:17.344Z,7.24
2023-04-15T09:36:21.008Z,7.26
2023-04-15T09:39:26.069Z,7.33
2023-04-15T09:42:29.490Z,7.36
2023-04-15T09:45:36.632Z,7.35
2023-04-15T09:48:40.125Z,7.50
2023-04-15T09:51:51.330Z,7.50
2023-04-15T09:55:08.934Z,7.52
2023-04-15T09:58:20.611Z,7.41
2023-04-15T10:01:29.704Z,7.52
2023-04-15T10:04:37.858Z,7.44
2023-04-15T10:07:43.053Z,7.51
2023-04-15T10:10:49.830Z,7.51
2023-04-15T10:13:57.419Z,7.55
2023-04-15T10:17:13.822Z,7.46
2023-04-15T10:20:21.426Z,7.56
2023-04-15T10:23:27.917Z,7.55
2023-04-15T10:26:33.323Z,7.58
2023-04-15T10:29:37.870Z,7.49
2023-04-15T10:32:42.666Z,7.54
2023-04-15T10:35:47.656Z,7.49
2023-04-15T10:38:52.245Z,7.52
2023-04-15T10:42:11.589Z,7.50
2023-04-15T10:45:20.527Z,7.46
2023-04-15T10:48:26.048Z,7.42
2023-04-15T10:51:33.735Z,7.56
2023-04-15T10:54:39.464Z,7.59
2023-04-15T10:57:52.476Z,7.56
2023-04-15T11:01:04.577Z,7.55
2023-04-15T11:04:08.572Z,7.62
2023-04-15T11:07:12.197Z,7.71
2023-04-15T11:10:53.978Z,7.67
2023-04-15T11:13:59.121Z,7.73
2023-04-15T11:17:03.049Z,7.67
2023-04-15T11:20:17.771Z,7.86
2023-04-15T11:23:30.023Z,7.69
2023-04-15T11:26:33.888Z,7.76
2023-04-15T11:29:38.958Z,7.70
2023-04-15T11:32:44.155Z,7.79
2023-04-15T11:35:49.461Z,7.79
2023-04-15T11:38:53.078Z,7.75
2023-04-15T11:41:56.558Z,7.79
2023-04-15T11:45:10.610Z,7.87
2023-04-15T11:48:15.597Z,7.96
2023-04-15T11:51:21.905Z,7.92
2023-04-15T11:54:25.608Z,7.91
2023-04-15T11:57:33.231Z,8.01
2023-04-15T12:00:40.079Z,8.01
2023-04-15T12:03:47.058Z,8.04
2023-04-15T12:06:50.977Z,8.01
2023-04-15T12:09:57.907Z,8.08
2023-04-15T12:13:01.670Z,8.08
2023-04-15T12:16:09.357Z,8.15
2023-04-15T12:19:15.131Z,8.20
2023-04-15T12:22:20.085Z,8.24
2023-04-15T12:25:36.454Z,8.41
2023-04-15T12:28:42.750Z,8.42
2023-04-15T12:31:53.182Z,8.48
2023-04-15T12:34:56.718Z,8.42
2023-04-15T12:38:00.606Z,8.52
2023-04-15T12:41:04.298Z,8.58
2023-04-15T12:44:43.950Z,8.70
2023-04-15T12:47:48.922Z,8.68
2023-04-15T12:50:52.634Z,8.74
2023-04-15T12:53:59.237Z,8.85
2023-04-15T12:57:05.963Z,8.94
2023-04-15T13:00:13.533Z,9.00
2023-04-15T13:03:18.846Z,9.04
2023-04-15T13:06:24.084Z,9.17
2023-04-15T13:09:27.741Z,9.50
2023-04-15T13:12:31.329Z,9.72
2023-04-15T13:15:35.974Z,9.85
2023-04-15T13:18:41.137Z,10.20
2023-04-15T13:21:44.733Z,10.16
2023-04-15T13:24:48.356Z,10.30
2023-04-15T13:27:52.388Z,10.47
2023-04-15T13:30:56.221Z,10.31
2023-04-15T13:34:01.254Z,10.41
2023-04-15T13:37:08.927Z,10.51
2023-04-15T13:40:13.305Z,10.54
2023-04-15T13:43:17.571Z,10.60
2023-04-15T13:46:21.484Z,10.59
2023-04-15T13:49:26.425Z,10.81
2023-04-15T13:52:30.185Z,10.70
2023-04-15T13:55:35.077Z,10.97
2023-04-15T13:58:39.231Z,10.83
2023-04-15T14:01:43.816Z,10.76
2023-04-15T14:04:48.857Z,10.71
2023-04-15T14:07:52.458Z,11.06
2023-04-15T14:10:55.945Z,11.14
2023-04-15T14:13:59.463Z,11.22
2023-04-15T14:17:03.909Z,11.21
2023-04-15T14:20:11.423Z,11.54
2023-04-15T14:23:14.910Z,11.67
2023-04-15T14:26:18.428Z,11.65
2023-04-15T14:29:22.292Z,11.49
2023-04-15T14:32:27.311Z,11.63
2023-04-15T14:35:32.641Z,11.54
2023-04-15T14:38:38.547Z,11.63
2023-04-15T14:41:42.203Z,11.60
2023-04-15T14:44:45.766Z,11.39
2023-04-15T14:47:49.364Z,11.33
2023-04-15T14:50:54.833Z,11.29
2023-04-15T14:53:58.452Z,11.40
2023-04-15T14:57:02.907Z,11.49
2023-04-15T15:00:08.535Z,11.57
2023-04-15T15:03:13.889Z,11.71
2023-04-15T15:06:18.999Z,11.68
2023-04-15T15:09:23.909Z,11.77
2023-04-15T15:12:27.431Z,11.95
2023-04-15T15:15:31.219Z,12.11
2023-04-15T15:18:34.824Z,12.22
2023-04-15T15:21:39.799Z,12.21
2023-04-15T15:24:43.429Z,12.30
2023-04-15T15:27:46.965Z,12.37
2023-04-15T15:30:51.075Z,12.43
2023-04-15T15:33:54.597Z,12.35
2023-04-15T15:36:59.656Z,12.27
2023-04-15T15:40:05.118Z,12.25
2023-04-15T15:43:08.771Z,12.25
2023-04-15T15:46:12.394Z,12.21
2023-04-15T15:49:16.464Z,12.29
2023-04-15T15:52:21.466Z,12.20
2023-04-15T15:55:27.286Z,12.20
2023-04-15T15:58:31.314Z,12.13
2023-04-15T16:01:34.942Z,12.03
2023-04-15T16:04:39.071Z,12.01
2023-04-15T16:07:44.108Z,11.90
2023-04-15T16:10:47.877Z,11.94
2023-04-15T16:13:51.364Z,11.96
2023-04-15T16:16:55.135Z,11.94
2023-04-15T16:20:00.906Z,11.86
2023-04-15T16:23:13.457Z,11.82
2023-04-15T16:26:17.081Z,11.75
2023-04-15T16:29:20.724Z,11.72
2023-04-15T16:32:38.648Z,11.67
2023-04-15T16:35:42.397Z,11.66
2023-04-15T16:38:48.811Z,11.63
2023-04-15T16:41:52.580Z,11.64
2023-04-15T16:44:56.668Z,11.56
2023-04-15T16:48:00.391Z,11.49
2023-04-15T16:51:04.062Z,11.45
2023-04-15T16:54:10.080Z,11.42
2023-04-15T16:57:13.786Z,11.36
2023-04-15T17:00:17.961Z,11.32
2023-04-15T17:03:21.828Z,11.29
2023-04-15T17:06:26.571Z,11.31
2023-04-15T17:09:32.042Z,11.26
2023-04-15T17:12:36.267Z,11.25
2023-04-15T17:15:50.760Z,11.22
2023-04-15T17:18:55.320Z,11.20
2023-04-15T17:21:59.317Z,11.22
2023-04-15T17:25:05.388Z,11.19
2023-04-15T17:28:09.112Z,11.18
2023-04-15T17:31:12.912Z,11.12
2023-04-15T17:34:23.756Z,11.16
2023-04-15T17:37:27.981Z,11.13
2023-04-15T17:40:33.301Z,11.04
2023-04-15T17:43:36.854Z,11.06
2023-04-15T17:46:40.539Z,10.97
2023-04-15T17:49:45.101Z,10.95
2023-04-15T17:52:48.602Z,10.90
2023-04-15T17:55:53.859Z,10.85
2023-04-15T17:58:59.235Z,10.85
2023-04-15T18:02:02.885Z,10.80
2023-04-15T18:05:07.752Z,10.75
2023-04-15T18:08:11.512Z,10.74
2023-04-15T18:11:17.633Z,10.71
2023-04-15T18:14:33.597Z,10.68
2023-04-15T18:17:38.659Z,10.64
2023-04-15T18:20:42.182Z,10.63
2023-04-15T18:23:46.119Z,10.60
2023-04-15T18:26:51.222Z,10.59
2023-04-15T18:29:54.798Z,10.52
2023-04-15T18:32:58.439Z,10.51
2023-04-15T18:36:02.639Z,10.49
2023-04-15T18:39:06.962Z,10.43
2023-04-15T18:42:12.009Z,10.45
2023-04-15T18:45:16.357Z,10.49
2023-04-15T18:48:20.130Z,10.39
2023-04-15T18:51:23.956Z,10.43
2023-04-15T18:54:27.532Z,10.36
2023-04-15T18:57:35.451Z,10.38
2023-04-15T19:00:41.834Z,10.35
2023-04-15T19:03:46.156Z,10.36
2023-04-15T19:06:50.113Z,10.34
2023-04-15T19:09:54.864Z,10.34
2023-04-15T19:13:01.173Z,10.40
2023-04-15T19:16:05.103Z,10.30
2023-04-15T19:19:14.764Z,10.30
2023-04-15T19:22:19.822Z,10.24
2023-04-15T19:25:29.378Z,10.22
2023-04-15T19:28:34.302Z,10.21
2023-04-15T19:31:38.893Z,10.17
2023-04-15T19:34:42.559Z,10.15
2023-04-15T19:37:46.303Z,10.09
2023-04-15T19:40:49.793Z,10.08
2023-04-15T19:43:54.785Z,10.07
2023-04-15T19:46:59.069Z,10.03
2023-04-15T19:50:02.941Z,10.04
2023-04-15T19:53:06.465Z,10.01
2023-04-15T19:56:09.974Z,9.97
2023-04-15T19:59:14.952Z,9.95
2023-04-15T20:02:18.596Z,9.93
2023-04-15T20:05:22.614Z,9.96
2023-04-15T20:08:27.546Z,9.93
2023-04-15T20:12:44.910Z,9.91
2023-04-15T20:14:58.217Z,9.89
2023-04-15T20:18:02.211Z,9.85
2023-04-15T20:21:05.987Z,9.82
2023-04-15T20:24:09.913Z,9.79
2023-04-15T20:27:13.407Z,9.76
2023-04-15T20:30:18.354Z,9.76
2023-04-15T20:33:23.034Z,9.72
2023-04-15T20:36:33.360Z,9.70
2023-04-15T20:39:42.189Z,9.72
2023-04-15T20:42:45.721Z,9.69
2023-04-15T20:45:54.168Z,9.70
2023-04-15T20:48:57.962Z,9.67
2023-04-15T20:52:01.478Z,9.65
2023-04-15T20:55:05.699Z,9.64
2023-04-15T20:58:09.228Z,9.57
2023-04-15T21:01:14.229Z,9.56
2023-04-15T21:04:17.793Z,9.56
2023-04-15T21:07:21.459Z,9.52
2023-04-15T21:10:25.303Z,9.46
2023-04-15T21:13:28.876Z,9.39
2023-04-15T21:16:34.110Z,9.37
2023-04-15T21:19:38.827Z,9.34
2023-04-15T21:22:42.622Z,9.29
2023-04-15T21:25:46.128Z,9.18
2023-04-15T21:28:49.697Z,9.11
2023-04-15T21:31:54.703Z,9.00
2023-04-15T21:34:58.311Z,8.89
2023-04-15T21:38:01.911Z,8.84
2023-04-15T21:41:09.548Z,8.78
2023-04-15T21:44:14.863Z,8.64
2023-04-15T21:47:20.350Z,8.60
2023-04-15T21:50:25.398Z,8.54
2023-04-15T21:53:29.303Z,8.53
2023-04-15T21:56:33.984Z,8.49
2023-04-15T21:59:37.578Z,8.45
2023-04-15T22:02:42.800Z,8.43
2023-04-15T22:05:48.440Z,8.40
2023-04-15T22:08:57.117Z,8.40
2023-04-15T22:12:01.164Z,8.37
2023-04-15T22:15:05.632Z,8.34
2023-04-15T22:18:10.543Z,8.29
2023-04-15T22:21:14.683Z,8.29
2023-04-15T22:24:38.807Z,8.30
2023-04-15T22:27:41.833Z,8.30
2023-04-15T22:30:45.603Z,8.26
2023-04-15T22:33:50.706Z,8.24
2023-04-15T22:36:54.380Z,8.26
2023-04-15T22:39:58.446Z,8.23
2023-04-15T22:43:02.088Z,8.22
2023-04-15T22:46:05.834Z,8.20
2023-04-15T22:49:11.408Z,8.16
2023-04-15T22:52:29.373Z,8.16
2023-04-15T22:55:33.914Z,8.14
2023-04-15T22:58:37.414Z,8.07
2023-04-15T23:01:40.980Z,8.03
2023-04-15T23:04:46.413Z,8.01
2023-04-15T23:07:49.990Z,7.98
2023-04-15T23:10:53.579Z,7.95
2023-04-15T23:13:57.073Z,7.90
2023-04-15T23:17:01.023Z,7.82
2023-04-15T23:20:06.983Z,7.81
2023-04-15T23:23:10.494Z,7.76
2023-04-15T23:26:14.162Z,7.67
2023-04-15T23:29:17.750Z,7.59
2023-04-15T23:32:21.222Z,7.54
2023-04-15T23:35:27.336Z,7.52
2023-04-15T23:38:30.865Z,7.48
2023-04-15T23:41:34.481Z,7.43
2023-04-15T23:44:38.334Z,7.37
2023-04-15T23:47:42.123Z,7.30
2023-04-15T23:50:47.166Z,7.30
2023-04-15T23:53:52.393Z,7.29
2023-04-15T23:56:56.120Z,7.27
